Time;durP1;ratioP1;P1;durP2;ratioP2;P2;SDS_P1;SDS_P2;PMS_P1;PMS_P2;Temp;Humidity;BMP_temperature;BMP_pressure;BME280_temperature;BME280_humidity;BME280_pressure;Samples;Min_cycle;Max_cycle;Signal;HPM_P1;HPM_P2
2021/09/24 00:02:02;;;;;;;9.73;6.50;;;;;;;14.00;80.33;97747.70;2173145;81;20985;-80
2021/09/24 00:05:02;;;;;;;11.57;6.75;;;;;;;14.03;80.27;97738.91;2173228;81;20940;-81
2021/09/24 00:08:03;;;;;;;9.25;6.33;;;;;;;14.03;80.16;97734.53;2172882;82;21008;-81
2021/09/24 00:11:03;;;;;;;12.75;6.67;;;;;;;14.07;79.94;97730.53;2173169;81;21450;-81
2021/09/24 00:14:05;;;;;;;9.25;6.72;;;;;;;14.09;79.55;97725.67;2162476;82;21015;-81
2021/09/24 00:17:06;;;;;;;9.50;5.97;;;;;;;14.14;79.38;97728.20;2173574;81;20933;-82
2021/09/24 00:20:06;;;;;;;9.70;6.55;;;;;;;14.18;79.16;97722.86;2172929;82;20977;-81
2021/09/24 00:23:07;;;;;;;10.15;6.67;;;;;;;14.22;79.07;97719.72;2173089;81;20984;-83
2021/09/24 00:26:08;;;;;;;12.25;6.60;;;;;;;14.24;78.79;97721.87;2173226;82;20981;-81
2021/09/24 00:29:08;;;;;;;10.90;6.85;;;;;;;14.26;78.72;97723.56;2173274;81;21343;-80
2021/09/24 00:32:09;;;;;;;9.83;7.15;;;;;;;14.28;78.55;97717.84;2188946;81;21035;-80
2021/09/24 00:35:09;;;;;;;11.60;7.20;;;;;;;14.28;78.75;97716.97;2190289;81;20936;-81
2021/09/24 00:38:10;;;;;;;15.15;7.53;;;;;;;14.30;78.58;97717.36;2189913;81;21348;-81
2021/09/24 00:41:11;;;;;;;9.30;7.10;;;;;;;14.29;78.36;97720.02;2190157;81;21007;-82
2021/09/24 00:44:11;;;;;;;12.90;7.00;;;;;;;14.30;78.34;97730.94;2190600;81;20992;-81
2021/09/24 00:47:12;;;;;;;10.53;6.95;;;;;;;14.31;78.42;97745.78;2190648;81;21020;-80
2021/09/24 00:50:12;;;;;;;8.95;7.28;;;;;;;14.30;79.71;97772.48;2190626;81;20979;-80
2021/09/24 00:53:13;;;;;;;25.05;5.45;;;;;;;14.18;81.31;97779.73;2190870;81;21019;-80
2021/09/24 00:56:13;;;;;;;10.00;4.60;;;;;;;13.85;83.31;97846.33;2190807;81;20932;-81
2021/09/24 00:59:14;;;;;;;6.78;4.00;;;;;;;13.47;84.12;97814.63;2189858;81;21331;-81
2021/09/24 01:02:14;;;;;;;6.50;3.72;;;;;;;13.25;85.12;97816.28;2189950;81;20991;-80
2021/09/24 01:05:15;;;;;;;5.42;3.12;;;;;;;12.99;85.62;97804.80;2190176;81;20972;-80
2021/09/24 01:08:15;;;;;;;5.28;3.47;;;;;;;12.80;86.20;97789.38;2189738;81;21047;-81
2021/09/24 01:11:16;;;;;;;7.28;3.67;;;;;;;12.71;87.08;97797.77;2189471;81;21012;-82
2021/09/24 01:14:16;;;;;;;5.40;3.47;;;;;;;12.67;87.16;97800.45;2190181;81;21335;-82
2021/09/24 01:17:17;;;;;;;3.42;3.05;;;;;;;12.65;87.65;97817.94;2190129;81;20940;-80
2021/09/24 01:20:17;;;;;;;5.00;3.07;;;;;;;12.66;86.71;97821.84;2189921;81;20987;-80
2021/09/24 01:23:18;;;;;;;5.33;2.97;;;;;;;12.70;86.51;97820.05;2189752;81;20964;-82
2021/09/24 01:26:18;;;;;;;6.43;2.80;;;;;;;12.67;85.96;97817.03;2189637;81;20932;-80
2021/09/24 01:29:19;;;;;;;5.20;2.80;;;;;;;12.64;85.44;97822.30;2189765;81;21386;-81
2021/09/24 01:32:19;;;;;;;10.60;3.40;;;;;;;12.55;85.96;97821.11;2174576;81;21024;-81
2021/09/24 01:35:20;;;;;;;5.90;2.87;;;;;;;12.49;86.26;97813.33;2173853;81;20965;-80
2021/09/24 01:38:21;;;;;;;5.40;2.60;;;;;;;12.46;86.12;97815.98;2173647;81;20984;-80
2021/09/24 01:41:21;;;;;;;3.87;2.90;;;;;;;12.43;86.21;97817.33;2173232;82;21071;-80
2021/09/24 01:44:22;;;;;;;3.83;2.70;;;;;;;12.37;85.88;97823.50;2173428;82;20996;-80
2021/09/24 01:47:22;;;;;;;4.83;3.03;;;;;;;12.31;86.14;97826.19;2173438;82;21435;-82
2021/09/24 01:50:23;;;;;;;11.77;3.03;;;;;;;12.26;86.22;97832.36;2173987;81;20961;-81
2021/09/24 01:53:24;;;;;;;5.20;3.00;;;;;;;12.20;85.93;97836.35;2173155;81;20944;-79
2021/09/24 01:56:25;;;;;;;10.37;6.03;;;;;;;12.17;85.96;97841.17;2173667;81;20937;-80
2021/09/24 01:59:25;;;;;;;7.97;3.37;;;;;;;12.11;85.62;97855.15;2173711;82;20953;-81
2021/09/24 02:02:26;;;;;;;9.30;3.40;;;;;;;12.07;86.03;97853.45;2173661;82;21336;-81
2021/09/24 02:05:27;;;;;;;5.97;3.07;;;;;;;12.03;85.83;97851.74;2173533;82;20988;-81
2021/09/24 02:08:27;;;;;;;10.83;3.30;;;;;;;12.01;85.62;97859.18;2173293;81;21012;-78
2021/09/24 02:11:28;;;;;;;4.80;2.80;;;;;;;12.00;85.39;97850.91;2173519;82;21056;-79
2021/09/24 02:14:28;;;;;;;8.23;3.03;;;;;;;11.96;85.44;97850.07;2173988;82;21356;-80
2021/09/24 02:17:29;;;;;;;5.53;2.93;;;;;;;11.92;85.56;97861.44;2174361;81;20977;-80
2021/09/24 02:20:30;;;;;;;11.50;2.97;;;;;;;11.88;85.49;97861.04;2174186;82;21302;-79
2021/09/24 02:23:30;;;;;;;6.33;3.13;;;;;;;11.84;85.98;97863.26;2174556;82;20956;-79
2021/09/24 02:26:31;;;;;;;11.70;3.03;;;;;;;11.82;85.93;97874.17;2173727;82;21048;-80
2021/09/24 02:29:31;;;;;;;6.13;3.30;;;;;;;11.82;85.82;97885.94;2173319;81;20949;-80
2021/09/24 02:32:32;;;;;;;11.73;4.57;;;;;;;11.80;86.00;97892.92;2173913;82;20984;-79
2021/09/24 02:35:33;;;;;;;13.90;3.30;;;;;;;11.78;86.47;97892.06;2173875;82;20948;-78
2021/09/24 02:38:33;;;;;;;4.80;2.70;;;;;;;11.82;86.26;97896.83;2173596;82;20984;-78
2021/09/24 02:41:34;;;;;;;6.70;3.00;;;;;;;11.82;86.01;97919.92;2173152;81;21008;-79
2021/09/24 02:44:34;;;;;;;9.00;3.13;;;;;;;11.84;85.78;97913.37;2173329;82;21336;-79
2021/09/24 02:47:35;;;;;;;8.87;2.80;;;;;;;11.87;84.13;97915.53;2174013;82;20984;-79
2021/09/24 02:50:35;;;;;;;7.47;2.80;;;;;;;11.86;84.55;97936.45;2174141;82;21406;-78
2021/09/24 02:53:36;;;;;;;7.47;2.80;;;;;;;11.83;84.74;97922.97;2174023;81;20949;-80
2021/09/24 02:56:36;;;;;;;6.00;2.97;;;;;;;11.80;85.09;97929.09;2174376;81;20992;-80
2021/09/24 02:59:37;;;;;;;8.53;2.67;;;;;;;11.76;85.18;97932.58;2174080;82;20992;-80
2021/09/24 03:02:37;;;;;;;8.03;2.80;;;;;;;11.71;85.42;97934.35;2174204;82;20984;-79
2021/09/24 03:05:38;;;;;;;5.27;2.77;;;;;;;11.70;84.93;97948.74;2174418;81;21019;-81
2021/09/24 03:08:38;;;;;;;6.73;2.87;;;;;;;11.67;84.69;97936.56;2174090;82;21183;-79
2021/09/24 03:11:39;;;;;;;8.20;2.73;;;;;;;11.63;83.72;97944.00;2173957;81;20984;-80
2021/09/24 03:14:39;;;;;;;7.67;2.33;;;;;;;11.63;82.29;97948.36;2173542;82;20924;-79
2021/09/24 03:17:40;;;;;;;11.00;2.93;;;;;;;11.60;81.74;97957.52;2173452;81;21419;-78
2021/09/24 03:20:41;;;;;;;9.33;2.70;;;;;;;11.57;80.36;97960.16;2173067;81;20945;-78
2021/09/24 03:23:41;;;;;;;8.73;2.57;;;;;;;11.53;79.75;97976.30;2173242;81;20999;-79
2021/09/24 03:26:42;;;;;;;8.00;2.60;;;;;;;11.51;79.68;97973.27;2173239;81;20999;-80
2021/09/24 03:29:42;;;;;;;7.47;2.37;;;;;;;11.47;78.11;97973.28;2173408;81;21000;-80
2021/09/24 03:32:43;;;;;;;11.83;2.37;;;;;;;11.47;76.96;97975.02;2188228;81;21018;-79
2021/09/24 03:35:44;;;;;;;14.70;3.60;;;;;;;11.45;76.08;97975.03;2190011;81;20964;-79
2021/09/24 03:38:44;;;;;;;9.90;2.33;;;;;;;11.44;75.30;97971.99;2190699;81;20984;-78
2021/09/24 03:41:45;;;;;;;13.73;2.57;;;;;;;11.40;74.22;97976.80;2190144;81;21027;-78
2021/09/24 03:44:45;;;;;;;14.73;2.70;;;;;;;11.34;74.24;97974.22;2189119;81;20952;-79
2021/09/24 03:47:45;;;;;;;14.03;3.03;;;;;;;11.30;74.18;97978.16;2189523;81;20999;-79
2021/09/24 03:50:46;;;;;;;12.37;3.60;;;;;;;11.26;74.50;97990.34;2189006;81;20916;-78
2021/09/24 03:53:47;;;;;;;13.80;3.10;;;;;;;11.20;73.16;98005.17;2189444;81;21351;-80
2021/09/24 03:56:47;;;;;;;13.80;3.27;;;;;;;11.16;72.85;98005.19;2189213;81;21011;-79
2021/09/24 03:59:47;;;;;;;17.23;4.07;;;;;;;11.17;71.12;98000.83;2189170;81;21000;-78
2021/09/24 04:02:48;;;;;;;26.93;3.67;;;;;;;11.15;70.25;98003.45;2189480;81;20956;-78
2021/09/24 04:05:49;;;;;;;18.97;3.40;;;;;;;11.16;70.19;98003.01;2188530;81;21023;-80
2021/09/24 04:08:49;;;;;;;14.47;3.03;;;;;;;11.16;69.80;97998.66;2189099;81;20976;-79
2021/09/24 04:11:50;;;;;;;15.80;3.37;;;;;;;11.14;70.38;98012.59;2188635;81;21777;-80
2021/09/24 04:14:50;;;;;;;14.07;2.77;;;;;;;11.11;70.27;98004.77;2188800;81;20980;-77
2021/09/24 04:17:51;;;;;;;16.53;3.23;;;;;;;11.12;69.79;98015.65;2189352;81;21003;-77
2021/09/24 04:20:51;;;;;;;21.00;4.17;;;;;;;11.12;70.30;98018.26;2189969;81;21032;-77
2021/09/24 04:23:52;;;;;;;17.53;4.73;;;;;;;11.11;70.29;98025.23;2190406;81;20956;-81
2021/09/24 04:26:52;;;;;;;20.77;4.13;;;;;;;11.12;70.84;98017.82;2189603;81;20971;-77
2021/09/24 04:29:53;;;;;;;21.47;3.87;;;;;;;11.11;70.94;98029.58;2189340;81;20998;-79
2021/09/24 04:32:53;;;;;;;10.10;3.63;;;;;;;11.10;70.93;98033.06;2189694;81;21443;-79
2021/09/24 04:35:54;;;;;;;13.43;4.10;;;;;;;11.08;71.35;98040.91;2190040;81;21345;-79
2021/09/24 04:38:56;;;;;;;11.63;3.70;;;;;;;11.05;71.61;98051.36;2189772;81;20941;-80
2021/09/24 04:41:56;;;;;;;15.20;3.60;;;;;;;11.04;71.58;98052.23;2190454;81;21086;-79
2021/09/24 04:44:57;;;;;;;22.43;3.97;;;;;;;11.04;71.94;98050.06;2190172;81;20960;-80
2021/09/24 04:47:57;;;;;;;21.40;4.40;;;;;;;11.04;72.20;98049.63;2190052;81;21354;-81
2021/09/24 04:50:58;;;;;;;22.70;5.20;;;;;;;11.03;72.28;98046.58;2190261;81;21048;-78
2021/09/24 04:53:58;;;;;;;18.30;5.07;;;;;;;11.03;72.35;98049.63;2188874;81;20944;-79
2021/09/24 04:56:59;;;;;;;18.37;4.57;;;;;;;11.01;72.37;98044.84;2188964;81;20952;-79
2021/09/24 04:59:59;;;;;;;19.13;4.03;;;;;;;11.03;72.44;98054.85;2188492;81;20940;-81
2021/09/24 05:03:00;;;;;;;12.37;4.33;;;;;;;11.03;72.47;98044.41;2188208;81;20966;-78
2021/09/24 05:09:03;;;;;;;19.93;3.67;;;;;;;11.06;72.62;98053.54;2171675;81;20963;-77
2021/09/24 05:12:03;;;;;;;20.40;3.73;;;;;;;11.09;72.53;98074.42;2187318;81;20995;-77
2021/09/24 05:15:03;;;;;;;16.97;3.87;;;;;;;11.14;72.47;98075.28;2188033;81;20996;-78
2021/09/24 05:18:06;;;;;;;9.47;3.40;;;;;;;11.18;72.77;98073.09;2187850;81;20976;-74
2021/09/24 05:21:06;;;;;;;22.33;4.27;;;;;;;11.22;71.98;98070.91;2142674;83;20943;-76
2021/09/24 05:24:07;;;;;;;17.67;4.03;;;;;;;11.29;72.35;98075.70;2143269;83;20983;-78
2021/09/24 05:27:07;;;;;;;16.30;3.50;;;;;;;11.31;72.12;98083.97;2143384;83;21014;-77
2021/09/24 05:30:08;;;;;;;17.07;3.20;;;;;;;11.33;71.77;98080.05;2143716;83;20998;-78
2021/09/24 05:33:08;;;;;;;20.67;3.47;;;;;;;11.35;72.09;98077.86;2129060;83;20960;-78
2021/09/24 05:36:11;;;;;;;18.27;3.70;;;;;;;11.37;71.29;98082.64;2127165;84;20929;-77
2021/09/24 05:39:11;;;;;;;18.27;3.70;;;;;;;11.39;70.97;98080.89;2172071;82;20945;-78
2021/09/24 05:42:14;;;;;;;16.07;3.80;;;;;;;11.42;70.83;98079.58;2171519;82;21000;-78
2021/09/24 05:45:14;;;;;;;16.47;3.73;;;;;;;11.44;70.57;98084.36;2172018;81;21026;-77
2021/09/24 05:48:15;;;;;;;14.97;3.23;;;;;;;11.49;70.62;98087.83;2171703;81;20992;-78
2021/09/24 05:51:15;;;;;;;14.63;2.97;;;;;;;11.60;70.25;98092.14;2172245;81;20972;-77
2021/09/24 05:54:16;;;;;;;13.83;3.83;;;;;;;11.67;70.09;98085.56;2171821;81;20961;-78
2021/09/24 05:57:16;;;;;;;12.23;3.87;;;;;;;11.77;70.02;98092.52;2172343;81;20952;-78
2021/09/24 06:00:17;;;;;;;15.40;3.77;;;;;;;11.90;68.61;98099.00;2172757;81;20973;-80
2021/09/24 06:03:17;;;;;;;14.67;4.00;;;;;;;11.98;69.45;98103.75;2171961;82;20952;-77
2021/09/24 06:06:18;;;;;;;18.40;5.90;;;;;;;12.08;69.13;98104.13;2171957;81;20984;-79
2021/09/24 06:09:18;;;;;;;35.52;19.00;;;;;;;12.18;68.61;98103.22;2171690;82;20992;-79
2021/09/24 06:12:19;;;;;;;25.13;3.60;;;;;;;12.68;67.92;98104.59;2171514;81;21383;-77
2021/09/24 06:15:20;;;;;;;13.90;3.17;;;;;;;12.69;66.48;98121.61;2171379;82;20973;-78
2021/09/24 06:18:20;;;;;;;11.68;2.72;;;;;;;12.59;66.45;98109.47;2170976;82;20953;-77
2021/09/24 06:21:21;;;;;;;13.38;3.22;;;;;;;12.51;66.65;98124.80;2171062;82;20956;-78
2021/09/24 06:24:22;;;;;;;15.23;3.55;;;;;;;12.52;66.56;98120.00;2170501;81;21753;-78
2021/09/24 06:27:22;;;;;;;15.03;3.65;;;;;;;12.60;66.86;98127.35;2170908;81;20988;-77
2021/09/24 06:30:23;;;;;;;20.05;3.50;;;;;;;12.63;65.64;98132.13;2170704;81;20952;-77
2021/09/24 06:33:23;;;;;;;22.05;4.30;;;;;;;12.67;65.99;98125.12;2185987;81;21339;-77
2021/09/24 06:36:25;;;;;;;12.88;4.05;;;;;;;12.68;66.61;98129.03;2187919;81;20944;-77
2021/09/24 06:39:25;;;;;;;12.85;5.03;;;;;;;12.71;66.29;98147.34;2187657;81;20982;-77
2021/09/24 06:42:25;;;;;;;13.70;3.30;;;;;;;12.68;66.85;98143.44;2188229;81;21050;-77
2021/09/24 06:45:27;;;;;;;17.57;3.70;;;;;;;12.67;66.54;98148.68;2187993;81;20947;-76
2021/09/24 06:48:27;;;;;;;19.65;4.40;;;;;;;12.61;66.04;98149.59;2187534;81;21000;-77
2021/09/24 06:51:28;;;;;;;12.70;3.17;;;;;;;12.59;66.61;98147.43;2188359;81;20966;-76
2021/09/24 06:54:29;;;;;;;15.83;3.70;;;;;;;12.55;65.82;98149.64;2188324;81;21852;-76
2021/09/24 06:57:30;;;;;;;16.02;3.65;;;;;;;12.54;66.24;98153.14;2188047;81;21455;-77
2021/09/24 07:00:31;;;;;;;19.62;3.70;;;;;;;12.61;66.45;98156.14;2188219;81;20980;-77
2021/09/24 07:03:31;;;;;;;12.47;3.10;;;;;;;12.62;66.18;98155.27;2187713;81;21652;-77
2021/09/24 07:06:32;;;;;;;17.92;3.67;;;;;;;12.60;66.27;98162.70;2188208;81;21635;-77
2021/09/24 07:09:32;;;;;;;13.72;3.95;;;;;;;12.54;65.96;98175.83;2187923;81;20980;-76
2021/09/24 07:12:34;;;;;;;15.00;4.55;;;;;;;12.52;66.85;98165.81;2188073;81;20999;-78
2021/09/24 07:15:35;;;;;;;15.50;3.30;;;;;;;12.52;66.62;98159.27;2187485;81;20999;-77
2021/09/24 07:18:35;;;;;;;10.53;2.83;;;;;;;12.45;66.59;98174.14;2187927;81;20913;-77
2021/09/24 07:21:35;;;;;;;16.30;3.45;;;;;;;12.40;66.43;98191.18;2188207;81;20948;-77
2021/09/24 07:24:36;;;;;;;16.80;4.00;;;;;;;12.39;66.74;98178.11;2187675;81;20975;-77
2021/09/24 07:27:36;;;;;;;16.00;3.45;;;;;;;12.43;67.41;98185.06;2187324;81;21003;-78
2021/09/24 07:30:37;;;;;;;14.28;3.30;;;;;;;12.48;67.62;98181.97;2188043;81;21315;-77
2021/09/24 07:33:37;;;;;;;20.10;3.77;;;;;;;12.47;66.68;98180.23;2186886;81;21347;-77
2021/09/24 07:36:38;;;;;;;39.20;23.32;;;;;;;12.55;67.02;98192.84;2187991;81;20943;-77
2021/09/24 07:39:39;;;;;;;26.68;10.98;;;;;;;12.68;66.74;98189.25;2187806;81;20967;-76
2021/09/24 07:42:39;;;;;;;11.20;3.37;;;;;;;13.02;65.86;98198.20;2187615;81;20999;-76
2021/09/24 07:45:40;;;;;;;12.55;3.77;;;;;;;13.00;65.93;98211.72;2187735;81;21012;-77
2021/09/24 07:48:42;;;;;;;16.77;3.65;;;;;;;12.94;65.70;98211.33;2187151;81;21063;-76
2021/09/24 07:51:42;;;;;;;13.08;3.50;;;;;;;12.91;65.41;98196.94;2188865;81;20976;-77
2021/09/24 07:54:43;;;;;;;9.63;2.90;;;;;;;12.90;65.89;98211.36;2189087;81;21108;-77
2021/09/24 07:57:45;;;;;;;9.68;2.85;;;;;;;12.90;65.71;98221.84;2188827;81;20944;-76
2021/09/24 08:00:46;;;;;;;18.80;6.55;;;;;;;12.94;66.04;98226.17;2143636;83;21339;-77
2021/09/24 08:03:46;;;;;;;176.95;133.18;;;;;;;12.93;65.14;98234.91;2143092;83;20982;-78
2021/09/24 08:06:47;;;;;;;142.03;99.25;;;;;;;13.05;67.17;98227.00;2120992;84;20972;-77
2021/09/24 08:09:47;;;;;;;15.40;3.95;;;;;;;13.20;65.59;98226.03;2120753;84;20937;-76
2021/09/24 08:12:48;;;;;;;12.07;3.60;;;;;;;13.07;65.44;98222.17;2120306;84;21012;-76
2021/09/24 08:15:48;;;;;;;17.92;3.62;;;;;;;13.02;66.11;98234.44;2120783;84;21340;-76
2021/09/24 08:18:49;;;;;;;15.50;3.08;;;;;;;12.96;66.14;98230.52;2121556;84;21297;-77
2021/09/24 08:21:50;;;;;;;20.32;4.08;;;;;;;12.99;65.71;98244.91;2121020;84;20933;-76
2021/09/24 08:24:50;;;;;;;13.25;3.50;;;;;;;13.03;66.23;98238.80;2120862;84;21048;-76
2021/09/24 08:27:50;;;;;;;12.65;3.87;;;;;;;13.07;66.35;98242.27;2119991;84;20988;-76
2021/09/24 08:30:51;;;;;;;17.00;3.52;;;;;;;13.08;65.63;98246.63;2119404;84;21035;-76
2021/09/24 08:33:52;;;;;;;21.73;4.22;;;;;;;13.18;65.97;98252.25;2120086;84;21024;-76
2021/09/24 08:36:52;;;;;;;15.18;3.58;;;;;;;13.27;65.52;98246.94;2143256;83;21010;-76
2021/09/24 08:39:53;;;;;;;25.25;3.80;;;;;;;13.30;64.96;98253.46;2143660;83;21375;-76
2021/09/24 08:42:54;;;;;;;16.48;4.85;;;;;;;13.25;65.55;98260.49;2143083;83;21410;-76
2021/09/24 08:45:54;;;;;;;12.65;3.55;;;;;;;13.22;65.41;98259.64;2143409;83;20955;-76
2021/09/24 08:48:55;;;;;;;12.18;3.33;;;;;;;13.20;65.59;98259.66;2142591;83;21003;-76
2021/09/24 08:51:55;;;;;;;11.05;3.25;;;;;;;13.19;65.49;98262.30;2142082;83;20952;-77
2021/09/24 08:54:56;;;;;;;11.80;3.55;;;;;;;13.30;65.64;98257.39;2142167;83;20979;-77
2021/09/24 08:57:57;;;;;;;12.28;2.85;;;;;;;13.36;65.50;98274.38;2142266;83;21495;-77
2021/09/24 09:00:57;;;;;;;20.40;3.62;;;;;;;13.40;64.93;98280.47;2142278;83;21044;-77
2021/09/24 09:03:59;;;;;;;11.50;3.17;;;;;;;13.35;65.22;98271.77;2142085;83;20971;-77
2021/09/24 09:06:59;;;;;;;13.93;4.08;;;;;;;13.35;65.29;98290.98;2142818;83;20928;-77
2021/09/24 09:10:00;;;;;;;17.35;4.20;;;;;;;13.27;65.69;98293.24;2143558;83;21370;-76
2021/09/24 09:13:00;;;;;;;11.63;4.20;;;;;;;13.21;66.28;98291.53;2143434;83;21394;-78
2021/09/24 09:16:01;;;;;;;14.18;4.15;;;;;;;13.19;66.34;98305.53;2142607;83;20942;-77
2021/09/24 09:19:01;;;;;;;14.95;4.42;;;;;;;13.18;66.23;98296.80;2142998;83;20939;-77
2021/09/24 09:22:02;;;;;;;13.78;4.58;;;;;;;13.16;66.78;98309.02;2142721;83;20939;-77
2021/09/24 09:25:02;;;;;;;17.40;5.90;;;;;;;13.19;66.89;98303.78;2142256;83;20937;-78
2021/09/24 09:28:03;;;;;;;18.30;4.67;;;;;;;13.31;66.97;98306.31;2142239;83;20951;-77
2021/09/24 09:31:03;;;;;;;12.80;3.87;;;;;;;13.41;66.13;98312.80;2143206;83;21331;-76
2021/09/24 09:34:04;;;;;;;12.55;4.80;;;;;;;13.47;66.04;98305.75;2128696;83;21039;-78
2021/09/24 09:37:05;;;;;;;25.68;8.60;;;;;;;13.65;65.74;98317.39;2126929;84;20940;-77
2021/09/24 09:40:05;;;;;;;20.45;4.80;;;;;;;14.07;65.48;98308.70;2126410;84;20948;-77
2021/09/24 09:43:06;;;;;;;17.57;4.72;;;;;;;14.27;64.89;98295.36;2127120;84;21039;-77
2021/09/24 09:46:06;;;;;;;14.65;4.92;;;;;;;14.37;64.08;98300.92;2127058;84;20960;-77
2021/09/24 09:49:07;;;;;;;17.55;4.25;;;;;;;14.52;63.52;98311.28;2126541;84;21379;-76
2021/09/24 09:52:10;;;;;;;10.28;3.55;;;;;;;14.62;63.67;98301.08;2126243;84;20956;-77
2021/09/24 09:55:12;;;;;;;20.23;4.37;;;;;;;14.69;62.55;98300.55;2126015;84;20988;-76
2021/09/24 09:58:12;;;;;;;18.85;4.10;;;;;;;14.78;62.41;98304.84;2126861;84;20964;-76
2021/09/24 10:01:13;;;;;;;14.95;3.92;;;;;;;15.01;62.59;98321.16;2125974;84;20924;-76
2021/09/24 10:04:13;;;;;;;15.32;3.85;;;;;;;15.01;62.59;98321.16;2126695;84;20973;-77
2021/09/24 10:07:14;;;;;;;16.00;4.45;;;;;;;15.16;61.54;98332.77;2126450;84;20987;-77
2021/09/24 10:10:14;;;;;;;11.18;4.12;;;;;;;15.26;61.92;98335.69;2126417;84;21372;-77
2021/09/24 10:13:15;;;;;;;17.45;4.12;;;;;;;15.10;61.44;98339.44;2125495;84;21463;-77
2021/09/24 10:16:15;;;;;;;12.13;3.65;;;;;;;14.77;62.02;98348.64;2125053;84;20974;-77
2021/09/24 10:19:16;;;;;;;17.25;4.25;;;;;;;14.45;62.37;98364.76;2125513;84;20998;-76
2021/09/24 10:22:16;;;;;;;12.53;3.70;;;;;;;14.20;63.19;98368.06;2125812;84;21615;-78
2021/09/24 10:25:17;;;;;;;14.10;4.58;;;;;;;14.11;64.13;98360.28;2125530;84;21366;-77
2021/09/24 10:28:17;;;;;;;13.30;3.58;;;;;;;13.99;63.71;98373.52;2125624;84;21408;-77
2021/09/24 10:31:18;;;;;;;13.38;3.70;;;;;;;13.91;64.85;98370.97;2126159;84;20959;-77
2021/09/24 10:34:18;;;;;;;11.38;3.77;;;;;;;13.81;65.74;98367.96;2134395;82;20991;-76
2021/09/24 10:37:20;;;;;;;12.40;4.15;;;;;;;13.68;65.58;98372.88;2135439;83;21117;-77
2021/09/24 10:40:22;;;;;;;10.95;4.12;;;;;;;13.61;65.91;98376.44;2135553;83;21375;-76
2021/09/24 10:43:23;;;;;;;16.35;3.90;;;;;;;13.70;65.58;98373.30;2134652;83;21034;-76
2021/09/24 10:46:24;;;;;;;18.37;7.28;;;;;;;13.74;65.70;98359.72;2135294;83;20979;-76
2021/09/24 10:49:26;;;;;;;12.93;4.03;;;;;;;13.90;65.18;98369.23;2135011;83;20998;-76
2021/09/24 10:52:27;;;;;;;11.43;3.42;;;;;;;14.34;64.05;98363.98;2135385;83;20995;-77
2021/09/24 10:55:27;;;;;;;9.23;3.40;;;;;;;14.62;62.61;98357.55;2135504;83;20991;-77
2021/09/24 10:58:28;;;;;;;14.05;4.03;;;;;;;14.56;62.70;98367.27;2135563;83;20954;-77
2021/09/24 11:01:28;;;;;;;13.00;3.83;;;;;;;14.49;63.39;98359.90;2135176;83;20948;-76
2021/09/24 11:04:29;;;;;;;10.30;4.03;;;;;;;14.42;63.66;98360.86;2135995;83;20975;-76
2021/09/24 11:07:30;;;;;;;11.80;4.58;;;;;;;14.26;63.39;98376.31;2136475;83;21453;-76
2021/09/24 11:10:31;;;;;;;246.85;202.90;;;;;;;14.35;63.88;98377.53;2136151;83;20995;-78
2021/09/24 11:13:32;;;;;;;13.88;5.83;;;;;;;14.83;65.65;98370.90;2136755;83;21022;-77
2021/09/24 11:16:32;;;;;;;8.60;3.52;;;;;;;15.44;61.57;98373.98;2136997;83;21031;-77
2021/09/24 11:19:33;;;;;;;16.07;4.08;;;;;;;15.34;60.69;98366.26;2136164;83;21042;-78
2021/09/24 11:22:33;;;;;;;10.50;3.67;;;;;;;15.21;60.65;98374.77;2135979;83;20959;-77
2021/09/24 11:25:34;;;;;;;10.68;3.62;;;;;;;15.23;61.41;98361.16;2136563;83;20955;-77
2021/09/24 11:28:34;;;;;;;10.75;4.22;;;;;;;15.28;60.60;98364.14;2136594;83;20999;-77
2021/09/24 11:31:35;;;;;;;12.28;3.37;;;;;;;15.33;60.10;98375.04;2136227;83;21410;-77
2021/09/24 11:34:38;;;;;;;10.32;4.00;;;;;;;15.55;60.19;98372.51;2136007;83;21022;-76
2021/09/24 11:37:39;;;;;;;12.88;3.25;;;;;;;15.55;60.19;98372.51;2181800;82;21070;-78
2021/09/24 11:40:39;;;;;;;11.57;4.10;;;;;;;15.38;59.68;98379.34;2181287;82;21351;-77
2021/09/24 11:43:40;;;;;;;12.58;4.08;;;;;;;15.27;59.85;98378.63;2180947;81;21402;-77
2021/09/24 11:46:40;;;;;;;10.08;3.35;;;;;;;15.18;59.50;98374.38;2181300;82;20933;-78
2021/09/24 11:49:41;;;;;;;8.93;3.27;;;;;;;15.16;60.17;98377.91;2181377;81;20976;-77
2021/09/24 11:52:41;;;;;;;13.53;3.95;;;;;;;15.26;60.07;98382.15;2181396;81;20975;-77
2021/09/24 11:55:45;;;;;;;10.78;4.03;;;;;;;15.34;58.04;98384.67;2181359;82;21383;-77
2021/09/24 11:58:44;;;;;;;36.50;25.77;;;;;;;15.34;58.95;98376.33;2136437;83;21379;-78
2021/09/24 12:01:45;;;;;;;307.83;251.80;;;;;;;15.41;58.73;98378.42;2181602;81;20916;-80
2021/09/24 12:04:45;;;;;;;12.70;3.33;;;;;;;15.95;56.49;98386.40;2181872;82;20945;-77
2021/09/24 12:07:46;;;;;;;8.73;2.77;;;;;;;16.27;55.45;98363.00;2181830;81;21038;-82
2021/09/24 12:10:46;;;;;;;9.53;3.00;;;;;;;16.37;53.49;98375.55;2181937;81;21683;-84
2021/09/24 12:13:47;;;;;;;7.17;2.50;;;;;;;16.23;54.56;98368.77;2180669;82;21035;-82
2021/09/24 12:16:49;;;;;;;9.95;2.90;;;;;;;16.14;54.69;98353.59;2181589;81;21343;-80
2021/09/24 12:19:49;;;;;;;8.08;2.95;;;;;;;16.09;53.61;98372.55;2180946;82;21035;-81
2021/09/24 12:22:50;;;;;;;6.33;2.87;;;;;;;16.13;53.84;98386.95;2180646;81;20952;-78
2021/09/24 12:25:50;;;;;;;13.93;4.10;;;;;;;16.34;53.55;98371.20;2181104;81;21339;-81
2021/09/24 12:28:51;;;;;;;6.42;3.10;;;;;;;16.88;53.24;98367.99;2181451;81;20984;-83
2021/09/24 12:31:51;;;;;;;8.23;2.87;;;;;;;16.88;53.24;98367.99;2181399;82;20991;-82
2021/09/24 12:34:52;;;;;;;8.08;2.85;;;;;;;16.80;52.00;98374.32;2171870;81;20977;-81
2021/09/24 12:37:52;;;;;;;18.02;2.90;;;;;;;16.68;50.57;98387.30;2171480;81;20984;-82
2021/09/24 12:40:53;;;;;;;8.55;2.58;;;;;;;16.68;51.07;98377.20;2171901;82;21470;-82
2021/09/24 12:43:53;;;;;;;9.13;2.85;;;;;;;16.65;48.91;98397.90;2171679;81;21000;-80
2021/09/24 12:46:58;;;;;;;8.68;2.75;;;;;;;16.80;49.29;98385.73;2171633;81;20992;-80
2021/09/24 12:49:56;;;;;;;7.20;2.42;;;;;;;16.64;49.67;98381.63;2127194;83;21046;-80
2021/09/24 12:52:57;;;;;;;9.03;3.05;;;;;;;16.42;49.32;98390.82;2126832;84;21332;-82
2021/09/24 12:55:58;;;;;;;8.20;2.77;;;;;;;16.16;50.37;98380.77;2126686;84;20960;-81
2021/09/24 12:58:59;;;;;;;7.03;2.62;;;;;;;16.01;51.13;98409.98;2127126;84;21008;-80
2021/09/24 13:01:59;;;;;;;12.33;2.65;;;;;;;15.99;52.57;98390.27;2127226;84;21007;-81
2021/09/24 13:05:00;;;;;;;11.28;3.17;;;;;;;16.01;52.55;98412.62;2126724;84;20972;-80
2021/09/24 13:08:01;;;;;;;14.75;3.50;;;;;;;16.23;52.55;98398.19;2127917;84;21351;-78
2021/09/24 13:11:01;;;;;;;16.25;3.02;;;;;;;16.41;53.75;98413.66;2127864;84;21035;-79
2021/09/24 13:14:01;;;;;;;7.45;3.05;;;;;;;16.41;53.75;98413.66;2128108;84;21023;-81
2021/09/24 13:17:02;;;;;;;6.97;3.00;;;;;;;16.56;53.95;98409.45;2128211;84;20963;-81
2021/09/24 13:20:03;;;;;;;8.78;3.77;;;;;;;16.67;54.06;98401.82;2128504;84;21403;-80
2021/09/24 13:23:04;;;;;;;9.90;3.90;;;;;;;16.67;54.46;98400.50;2128103;84;20947;-81
2021/09/24 13:26:04;;;;;;;14.60;3.75;;;;;;;16.51;54.24;98399.45;2127326;84;21004;-80
2021/09/24 13:29:05;;;;;;;9.10;3.12;;;;;;;16.62;53.45;98406.28;2127986;84;21347;-81
2021/09/24 13:32:09;;;;;;;10.65;3.45;;;;;;;16.70;53.18;98396.04;2127237;84;20987;-81
2021/09/24 13:35:08;;;;;;;16.15;8.73;;;;;;;16.71;53.33;98404.36;2185799;81;21019;-82
2021/09/24 13:38:09;;;;;;;10.25;3.55;;;;;;;16.78;54.06;98398.52;2189073;81;20972;-82
2021/09/24 13:41:09;;;;;;;14.68;4.17;;;;;;;16.79;52.97;98420.89;2189215;81;21363;-81
2021/09/24 13:44:10;;;;;;;9.80;3.30;;;;;;;16.70;52.45;98413.17;2189079;81;21441;-81
2021/09/24 13:47:10;;;;;;;12.55;5.17;;;;;;;16.62;53.17;98407.15;2188388;81;21349;-78
2021/09/24 13:50:12;;;;;;;15.72;5.15;;;;;;;16.70;53.51;98403.95;2188415;81;20961;-79
2021/09/24 13:53:14;;;;;;;12.50;4.20;;;;;;;16.58;52.69;98404.16;2187995;81;21324;-78
2021/09/24 13:56:16;;;;;;;20.77;7.33;;;;;;;16.44;52.95;98409.65;2188093;81;21444;-81
2021/09/24 13:59:16;;;;;;;13.25;4.62;;;;;;;16.34;53.76;98412.03;2187987;81;21382;-80
2021/09/24 14:02:17;;;;;;;11.50;4.50;;;;;;;16.43;53.60;98414.95;2188110;81;20987;-81
2021/09/24 14:05:17;;;;;;;15.78;5.08;;;;;;;16.21;53.17;98415.78;2188594;81;20952;-81